createdAt,value
2023-01-19T00:01:42.259Z,99679.80
2023-01-19T00:04:10.093Z,99684.20
2023-01-19T00:06:37.847Z,99675.60
2023-01-19T00:09:05.634Z,99674.40
2023-01-19T00:11:33.398Z,99674.80
2023-01-19T00:14:01.105Z,99679.20
2023-01-19T00:16:29.099Z,99673.20
2023-01-19T00:18:56.909Z,99681.00
2023-01-19T00:21:24.814Z,99675.80
2023-01-19T00:23:52.815Z,99681.00
2023-01-19T00:26:22.212Z,99682.60
2023-01-19T00:28:51.146Z,99679.60
2023-01-19T00:31:21.818Z,99682.20
2023-01-19T00:33:52.470Z,99681.60
2023-01-19T00:36:20.582Z,99678.80
2023-01-19T00:38:48.662Z,99674.60
2023-01-19T00:41:17.670Z,99677.40
2023-01-19T00:43:45.433Z,99676.40
2023-01-19T00:46:13.415Z,99685.00
2023-01-19T00:48:41.171Z,99682.40
2023-01-19T00:51:08.909Z,99678.80
2023-01-19T00:53:36.655Z,99681.40
2023-01-19T00:56:05.016Z,99687.00
2023-01-19T00:58:32.880Z,99691.60
2023-01-19T01:01:03.726Z,99688.20
2023-01-19T01:03:32.716Z,99692.80
2023-01-19T01:06:01.101Z,99691.00
2023-01-19T01:08:29.748Z,99699.60
2023-01-19T01:10:57.524Z,99697.00
2023-01-19T01:13:27.742Z,99699.60
2023-01-19T01:15:57.093Z,99704.40
2023-01-19T01:18:25.978Z,99698.60
2023-01-19T01:21:01.698Z,99702.80
2023-01-19T01:23:29.673Z,99707.80
2023-01-19T01:25:57.482Z,99703.80
2023-01-19T01:28:25.582Z,99698.80
2023-01-19T01:30:55.488Z,99705.20
2023-01-19T01:33:40.530Z,99697.20
2023-01-19T01:36:11.676Z,99693.60
2023-01-19T01:38:41.424Z,99698.60
2023-01-19T01:41:09.785Z,99698.60
2023-01-19T01:44:08.279Z,99697.80
2023-01-19T01:46:36.258Z,99703.20
2023-01-19T01:49:16.674Z,99701.40
2023-01-19T01:51:49.745Z,99699.80
2023-01-19T01:54:25.887Z,99701.20
2023-01-19T01:57:00.911Z,99701.00
2023-01-19T01:59:39.378Z,99705.00
2023-01-19T02:02:36.213Z,99708.00
2023-01-19T02:05:11.062Z,99711.60
2023-01-19T02:08:09.077Z,99710.80
2023-01-19T02:10:56.434Z,99715.80
2023-01-19T02:13:25.637Z,99713.80
2023-01-19T02:15:59.322Z,99711.80
2023-01-19T02:18:30.887Z,99715.40
2023-01-19T02:21:22.962Z,99711.60
2023-01-19T02:23:54.556Z,99716.60
2023-01-19T02:26:29.667Z,99710.00
2023-01-19T02:29:05.565Z,99709.40
2023-01-19T02:31:36.478Z,99710.80
2023-01-19T02:34:07.628Z,99707.40
2023-01-19T02:36:48.294Z,99711.20
2023-01-19T02:39:20.579Z,99706.20
2023-01-19T02:41:55.481Z,99708.20
2023-01-19T02:44:25.042Z,99707.60
2023-01-19T02:46:56.248Z,99709.20
2023-01-19T02:49:30.036Z,99713.40
2023-01-19T02:52:00.997Z,99713.00
2023-01-19T02:54:49.894Z,99717.60
2023-01-19T02:57:45.203Z,99713.60
2023-01-19T03:00:28.634Z,99718.60
2023-01-19T03:03:48.579Z,99717.20
2023-01-19T03:06:34.558Z,99717.20
2023-01-19T03:09:14.675Z,99719.60
2023-01-19T03:11:54.886Z,99722.80
2023-01-19T03:14:29.062Z,99728.40
2023-01-19T03:17:05.089Z,99728.40
2023-01-19T03:19:41.505Z,99733.60
2023-01-19T03:22:29.776Z,99728.20
2023-01-19T03:25:01.560Z,99729.00
2023-01-19T03:27:40.626Z,99730.00
2023-01-19T03:30:16.023Z,99737.40
2023-01-19T03:32:55.454Z,99739.60
2023-01-19T03:35:28.898Z,99739.60
2023-01-19T03:38:01.004Z,99734.00
2023-01-19T03:40:32.542Z,99735.60
2023-01-19T03:43:02.562Z,99739.80
2023-01-19T03:45:34.186Z,99735.20
2023-01-19T03:48:02.301Z,99739.20
2023-01-19T03:50:30.946Z,99739.80
2023-01-19T03:53:13.706Z,99738.80
2023-01-19T03:55:47.242Z,99731.00
2023-01-19T03:58:14.955Z,99740.60
2023-01-19T04:00:42.841Z,99734.60
2023-01-19T04:03:16.130Z,99738.00
2023-01-19T04:05:44.619Z,99743.80
2023-01-19T04:08:13.394Z,99743.40
2023-01-19T04:10:41.081Z,99748.80
2023-01-19T04:13:09.018Z,99744.80
2023-01-19T04:15:36.742Z,99740.80
2023-01-19T04:18:05.451Z,99746.60
2023-01-19T04:20:33.957Z,99746.20
2023-01-19T04:23:02.480Z,99745.20
2023-01-19T04:25:30.430Z,99746.60
2023-01-19T04:27:58.513Z,99742.40
2023-01-19T04:30:27.707Z,99744.60
2023-01-19T04:32:56.258Z,99742.80
2023-01-19T04:35:24.002Z,99741.60
2023-01-19T04:37:51.841Z,99743.20
2023-01-19T04:40:19.902Z,99739.40
2023-01-19T04:42:47.850Z,99740.00
2023-01-19T04:45:15.717Z,99734.00
2023-01-19T04:47:43.435Z,99729.20
2023-01-19T04:50:12.069Z,99735.00
2023-01-19T04:52:39.975Z,99734.00
2023-01-19T04:55:16.852Z,99730.40
2023-01-19T04:57:45.773Z,99734.60
2023-01-19T05:00:14.416Z,99731.20
2023-01-19T05:02:44.125Z,99737.00
2023-01-19T05:05:12.398Z,99734.40
2023-01-19T05:07:40.152Z,99739.80
2023-01-19T05:10:10.383Z,99739.00
2023-01-19T05:12:38.675Z,99738.00
2023-01-19T05:15:08.433Z,99734.60
2023-01-19T05:17:36.622Z,99728.80
2023-01-19T05:20:05.126Z,99732.80
2023-01-19T05:22:33.059Z,99728.40
2023-01-19T05:25:01.709Z,99725.40
2023-01-19T05:27:29.921Z,99733.00
2023-01-19T05:29:57.718Z,99727.60
2023-01-19T05:32:25.521Z,99725.20
2023-01-19T05:34:53.205Z,99723.40
2023-01-19T05:37:20.871Z,99719.80
2023-01-19T05:39:48.580Z,99718.80
2023-01-19T05:42:17.240Z,99715.20
2023-01-19T05:44:44.925Z,99717.40
2023-01-19T05:47:12.673Z,99720.60
2023-01-19T05:49:40.410Z,99721.60
2023-01-19T05:52:08.278Z,99712.80
2023-01-19T05:54:36.108Z,99720.20
2023-01-19T05:57:04.818Z,99722.40
2023-01-19T05:59:32.726Z,99716.20
2023-01-19T06:02:01.087Z,99725.00
2023-01-19T06:04:29.113Z,99719.40
2023-01-19T06:06:56.798Z,99724.20
2023-01-19T06:09:24.609Z,99730.00
2023-01-19T06:11:54.272Z,99721.20
2023-01-19T06:14:22.275Z,99718.00
2023-01-19T06:16:50.010Z,99717.80
2023-01-19T06:19:18.137Z,99721.80
2023-01-19T06:21:52.158Z,99719.60
2023-01-19T06:24:20.137Z,99723.60
2023-01-19T06:26:48.095Z,99717.80
2023-01-19T06:29:15.893Z,99724.20
2023-01-19T06:31:43.877Z,99728.20
2023-01-19T06:34:11.760Z,99725.60
2023-01-19T06:36:39.602Z,99725.20
2023-01-19T06:39:07.484Z,99725.20
2023-01-19T06:41:35.867Z,99729.60
2023-01-19T06:44:04.348Z,99734.80
2023-01-19T06:46:32.469Z,99737.20
2023-01-19T06:49:00.151Z,99733.20
2023-01-19T06:51:28.079Z,99741.00
2023-01-19T06:53:55.881Z,99739.60
2023-01-19T06:56:23.779Z,99744.60
2023-01-19T06:58:53.236Z,99748.60
2023-01-19T07:01:21.308Z,99742.20
2023-01-19T07:03:49.644Z,99741.20
2023-01-19T07:06:17.403Z,99742.60
2023-01-19T07:08:45.323Z,99743.60
2023-01-19T07:11:26.520Z,99742.80
2023-01-19T07:13:59.666Z,99742.40
2023-01-19T07:16:27.667Z,99740.60
2023-01-19T07:18:57.364Z,99747.60
2023-01-19T07:21:29.297Z,99755.60
2023-01-19T07:23:58.353Z,99747.40
2023-01-19T07:26:28.098Z,99753.20
2023-01-19T07:28:55.945Z,99750.60
2023-01-19T07:31:23.772Z,99751.60
2023-01-19T07:33:51.799Z,99757.40
2023-01-19T07:36:19.608Z,99765.20
2023-01-19T07:38:47.348Z,99770.20
2023-01-19T07:41:15.197Z,99770.00
2023-01-19T07:43:42.985Z,99768.60
2023-01-19T07:46:10.815Z,99773.80
2023-01-19T07:48:38.792Z,99776.20
2023-01-19T07:51:11.054Z,99777.20
2023-01-19T07:53:41.884Z,99777.60
2023-01-19T07:56:11.177Z,99778.20
2023-01-19T07:58:39.898Z,99774.40
2023-01-19T08:01:13.203Z,99779.40
2023-01-19T08:03:41.260Z,99785.20
2023-01-19T08:06:21.740Z,99783.40
2023-01-19T08:08:50.323Z,99789.40
2023-01-19T08:11:18.109Z,99791.80
2023-01-19T08:13:45.873Z,99790.60
2023-01-19T08:16:13.656Z,99791.00
2023-01-19T08:18:41.943Z,99792.20
2023-01-19T08:21:09.742Z,99793.60
2023-01-19T08:23:37.487Z,99791.20
2023-01-19T08:26:29.800Z,99791.20
2023-01-19T08:29:02.396Z,99790.20
2023-01-19T08:31:31.249Z,99792.80
2023-01-19T08:33:59.264Z,99793.40
2023-01-19T08:36:27.228Z,99797.80
2023-01-19T08:38:55.223Z,99797.00
2023-01-19T08:41:23.074Z,99805.40
2023-01-19T08:43:51.042Z,99805.80
2023-01-19T08:46:21.638Z,99803.40
2023-01-19T08:48:50.254Z,99805.60
2023-01-19T08:51:18.845Z,99798.00
2023-01-19T08:53:47.278Z,99801.20
2023-01-19T08:56:15.354Z,99801.00
2023-01-19T08:58:46.712Z,99802.40
2023-01-19T09:01:18.608Z,99804.20
2023-01-19T09:03:47.009Z,99810.40
2023-01-19T09:06:19.576Z,99809.80
2023-01-19T09:08:48.943Z,99811.60
2023-01-19T09:11:17.541Z,99815.40
2023-01-19T09:13:50.890Z,99821.40
2023-01-19T09:16:21.642Z,99819.00
2023-01-19T09:18:49.576Z,99823.00
2023-01-19T09:21:18.598Z,99823.20
2023-01-19T09:23:49.303Z,99813.40
2023-01-19T09:26:17.536Z,99820.80
2023-01-19T09:28:45.756Z,99825.80
2023-01-19T09:31:15.233Z,99829.00
2023-01-19T09:33:43.253Z,99824.80
2023-01-19T09:36:12.806Z,99825.40
2023-01-19T09:38:40.688Z,99820.40
2023-01-19T09:41:22.589Z,99827.00
2023-01-19T09:44:00.553Z,99831.20
2023-01-19T09:46:42.629Z,99836.40
2023-01-19T09:49:28.543Z,99839.60
2023-01-19T09:51:56.456Z,99838.40
2023-01-19T09:54:52.877Z,99837.40
2023-01-19T09:57:23.739Z,99839.40
2023-01-19T09:59:51.773Z,99840.40
2023-01-19T10:02:44.209Z,99843.60
2023-01-19T10:05:53.538Z,99845.60
2023-01-19T10:08:49.038Z,99851.60
2023-01-19T10:11:52.144Z,99847.80
2023-01-19T10:15:04.225Z,99847.40
2023-01-19T10:17:59.112Z,99850.00
2023-01-19T10:20:36.931Z,99848.40
2023-01-19T10:23:21.904Z,99851.80
2023-01-19T10:25:51.031Z,99848.20
2023-01-19T10:28:25.716Z,99860.00
2023-01-19T10:30:55.969Z,99851.40
2023-01-19T10:33:25.360Z,99854.00
2023-01-19T10:35:53.459Z,99849.60
2023-01-19T10:38:22.286Z,99854.40
2023-01-19T10:41:04.806Z,99849.20
2023-01-19T10:43:45.039Z,99852.20
2023-01-19T10:46:42.027Z,99847.00
2023-01-19T10:49:39.281Z,99840.80
2023-01-19T10:52:19.140Z,99841.80
2023-01-19T10:54:48.555Z,99836.00
2023-01-19T10:57:40.958Z,99839.00
2023-01-19T11:00:33.472Z,99836.00
2023-01-19T11:03:02.039Z,99834.40
2023-01-19T11:05:35.609Z,99833.20
2023-01-19T11:08:28.679Z,99840.00
2023-01-19T11:11:08.106Z,99839.60
2023-01-19T11:13:36.864Z,99837.20
2023-01-19T11:16:14.889Z,99838.60
2023-01-19T11:18:43.948Z,99839.20
2023-01-19T11:21:16.415Z,99843.60
2023-01-19T11:23:53.956Z,99844.00
2023-01-19T11:26:33.125Z,99845.60
2023-01-19T11:29:04.064Z,99843.60
2023-01-19T11:31:36.015Z,99845.80
2023-01-19T11:34:31.747Z,99849.80
2023-01-19T11:37:28.557Z,99845.60
2023-01-19T11:40:00.571Z,99845.40
2023-01-19T11:42:33.976Z,99841.00
2023-01-19T11:45:07.433Z,99842.40
2023-01-19T11:47:49.689Z,99836.60
2023-01-19T11:50:33.142Z,99835.20
2023-01-19T11:53:30.557Z,99832.60
2023-01-19T11:56:11.357Z,99829.80
2023-01-19T11:58:43.321Z,99828.20
2023-01-19T12:01:34.260Z,99826.20
2023-01-19T12:04:19.273Z,99823.00
2023-01-19T12:06:53.115Z,99824.80
2023-01-19T12:09:30.018Z,99817.20
2023-01-19T12:12:04.486Z,99810.20
2023-01-19T12:14:54.221Z,99807.80
2023-01-19T12:17:50.608Z,99800.00
2023-01-19T12:20:27.495Z,99801.40
2023-01-19T12:23:09.136Z,99800.80
2023-01-19T12:26:14.109Z,99801.00
2023-01-19T12:28:47.413Z,99798.00
2023-01-19T12:31:22.003Z,99791.40
2023-01-19T12:33:51.367Z,99793.40
2023-01-19T12:36:33.152Z,99795.20
2023-01-19T12:39:22.974Z,99792.00
2023-01-19T12:42:11.908Z,99796.60
2023-01-19T12:44:42.044Z,99802.60
2023-01-19T12:47:15.840Z,99793.20
2023-01-19T12:49:52.542Z,99786.00
2023-01-19T12:52:41.323Z,99776.40
2023-01-19T12:55:14.847Z,99778.40
2023-01-19T12:58:00.951Z,99786.00
2023-01-19T13:00:40.875Z,99781.60
2023-01-19T13:03:17.370Z,99777.20
2023-01-19T13:05:49.541Z,99777.20
2023-01-19T13:08:21.057Z,99782.00
2023-01-19T13:11:07.840Z,99780.00
2023-01-19T13:13:37.516Z,99783.40
2023-01-19T13:16:20.679Z,99779.00
2023-01-19T13:19:09.272Z,99777.80
2023-01-19T13:21:41.525Z,99782.20
2023-01-19T13:24:14.933Z,99788.60
2023-01-19T13:26:55.621Z,99787.00
2023-01-19T13:29:35.059Z,99792.00
2023-01-19T13:32:24.584Z,99793.60
2023-01-19T13:35:00.154Z,99786.40
2023-01-19T13:37:39.473Z,99782.80
2023-01-19T13:40:21.088Z,99787.60
2023-01-19T13:42:50.934Z,99790.40
2023-01-19T13:45:36.905Z,99794.40
2023-01-19T13:48:08.921Z,99804.20
2023-01-19T13:50:39.244Z,99801.00
2023-01-19T13:53:20.639Z,99797.00
2023-01-19T13:55:48.570Z,99798.00
2023-01-19T13:58:24.217Z,99805.00
2023-01-19T14:00:52.692Z,99803.40
2023-01-19T14:03:24.333Z,99803.00
2023-01-19T14:05:55.405Z,99802.20
2023-01-19T14:08:25.651Z,99809.40
2023-01-19T14:11:02.450Z,99805.60
2023-01-19T14:13:33.830Z,99804.40
2023-01-19T14:16:17.148Z,99811.00
2023-01-19T14:18:45.000Z,99819.40
2023-01-19T14:21:15.511Z,99826.00
2023-01-19T14:23:57.882Z,99820.40
2023-01-19T14:26:37.708Z,99827.00
2023-01-19T14:29:32.794Z,99826.80
2023-01-19T14:32:05.706Z,99822.20
2023-01-19T14:34:48.724Z,99821.40
2023-01-19T14:37:32.730Z,99820.60
2023-01-19T14:40:13.189Z,99825.80
2023-01-19T14:42:53.079Z,99836.80
2023-01-19T14:45:46.971Z,99839.20
2023-01-19T14:48:20.429Z,99836.60
2023-01-19T14:51:02.781Z,99838.40
2023-01-19T14:53:51.482Z,99843.00
2023-01-19T14:56:33.037Z,99854.60
2023-01-19T14:59:02.973Z,99855.00
2023-01-19T15:01:31.757Z,99863.40
2023-01-19T15:03:59.817Z,99863.00
2023-01-19T15:06:28.055Z,99865.40
2023-01-19T15:08:55.997Z,99867.80
2023-01-19T15:11:31.381Z,99874.40
2023-01-19T15:14:01.016Z,99878.00
2023-01-19T15:16:33.206Z,99880.60
2023-01-19T15:19:01.276Z,99882.80
2023-01-19T15:21:29.300Z,99891.60
2023-01-19T15:23:58.409Z,99892.20
2023-01-19T15:26:27.316Z,99898.60
2023-01-19T15:28:56.782Z,99897.00
2023-01-19T15:31:26.568Z,99901.20
2023-01-19T15:33:54.419Z,99894.40
2023-01-19T15:36:24.274Z,99888.80
2023-01-19T15:38:52.254Z,99894.00
2023-01-19T15:41:29.852Z,99909.00
2023-01-19T15:43:58.795Z,99911.80
2023-01-19T15:46:27.452Z,99915.20
2023-01-19T15:48:55.213Z,99920.80
2023-01-19T15:51:26.305Z,99925.80
2023-01-19T15:53:55.865Z,99931.40
2023-01-19T15:56:28.455Z,99933.40
2023-01-19T15:58:58.580Z,99930.40
2023-01-19T16:01:33.755Z,99934.80
2023-01-19T16:04:05.581Z,99937.60
2023-01-19T16:06:33.979Z,99940.20
2023-01-19T16:09:03.766Z,99946.00
2023-01-19T16:11:34.740Z,99955.20
2023-01-19T16:14:02.716Z,99952.80
2023-01-19T16:16:30.628Z,99960.60
2023-01-19T16:18:58.459Z,99964.40
2023-01-19T16:21:26.597Z,99970.40
2023-01-19T16:23:54.855Z,99972.40
2023-01-19T16:26:27.278Z,99969.80
2023-01-19T16:29:01.395Z,99967.60
2023-01-19T16:31:29.755Z,99974.20
2023-01-19T16:33:57.518Z,99974.20
2023-01-19T16:36:31.543Z,99984.60
2023-01-19T16:39:05.822Z,99983.80
2023-01-19T16:41:35.553Z,99984.40
2023-01-19T16:44:04.838Z,99988.20
2023-01-19T16:46:40.048Z,99995.20
2023-01-19T16:49:15.991Z,99989.00
2023-01-19T16:51:44.051Z,99993.80
2023-01-19T16:54:20.609Z,99998.00
2023-01-19T16:56:49.514Z,100004.60
2023-01-19T16:59:19.013Z,100004.60
2023-01-19T17:01:46.966Z,100000.20
2023-01-19T17:04:14.835Z,100003.00
2023-01-19T17:06:42.858Z,100004.80
2023-01-19T17:09:10.596Z,100000.60
2023-01-19T17:11:40.364Z,100005.40
2023-01-19T17:14:20.249Z,100009.00
2023-01-19T17:16:49.848Z,100019.40
2023-01-19T17:19:20.522Z,100023.80
2023-01-19T17:21:50.116Z,100034.00
2023-01-19T17:24:18.181Z,100036.20
2023-01-19T17:26:48.738Z,100042.00
2023-01-19T17:29:17.414Z,100045.00
2023-01-19T17:31:46.703Z,100045.20
2023-01-19T17:34:14.567Z,100044.60
2023-01-19T17:36:42.434Z,100050.00
2023-01-19T17:39:14.715Z,100045.00
2023-01-19T17:41:42.895Z,100045.40
2023-01-19T17:44:11.482Z,100052.60
2023-01-19T17:46:39.807Z,100056.80
2023-01-19T17:49:08.254Z,100062.40
2023-01-19T17:51:36.815Z,100066.20
2023-01-19T17:54:04.931Z,100065.60
2023-01-19T17:56:36.834Z,100068.60
2023-01-19T17:59:07.639Z,100070.80
2023-01-19T18:01:39.834Z,100073.40
2023-01-19T18:04:10.492Z,100074.80
2023-01-19T18:06:39.236Z,100079.00
2023-01-19T18:09:07.709Z,100084.00
2023-01-19T18:11:36.184Z,100091.20
2023-01-19T18:14:05.415Z,100097.80
2023-01-19T18:16:33.405Z,100101.40
2023-01-19T18:19:01.237Z,100112.40
2023-01-19T18:21:30.288Z,100115.40
2023-01-19T18:24:02.279Z,100122.60
2023-01-19T18:26:32.734Z,100120.20
2023-01-19T18:29:01.073Z,100130.40
2023-01-19T18:31:29.482Z,100131.20
2023-01-19T18:33:57.479Z,100136.40
2023-01-19T18:36:25.506Z,100135.20
2023-01-19T18:38:53.652Z,100142.00
2023-01-19T18:41:22.200Z,100137.80
2023-01-19T18:43:54.255Z,100131.20
2023-01-19T18:46:26.221Z,100136.80
2023-01-19T18:48:54.792Z,100132.00
2023-01-19T18:51:22.990Z,100133.00
2023-01-19T18:53:50.831Z,100135.60
2023-01-19T18:56:18.723Z,100138.80
2023-01-19T18:58:46.582Z,100143.40
2023-01-19T19:01:24.514Z,100146.20
2023-01-19T19:03:54.164Z,100150.00
2023-01-19T19:06:24.282Z,100151.60
2023-01-19T19:08:55.036Z,100152.20
2023-01-19T19:11:25.156Z,100152.20
2023-01-19T19:14:00.110Z,100156.80
2023-01-19T19:16:30.197Z,100161.40
2023-01-19T19:18:59.363Z,100166.00
2023-01-19T19:21:27.820Z,100170.40
2023-01-19T19:23:58.056Z,100168.00
2023-01-19T19:26:28.111Z,100168.00
2023-01-19T19:28:56.884Z,100171.40
2023-01-19T19:31:27.493Z,100170.80
2023-01-19T19:33:57.283Z,100175.40
2023-01-19T19:36:28.374Z,100175.20
2023-01-19T19:38:56.188Z,100174.40
2023-01-19T19:41:27.065Z,100177.80
2023-01-19T19:43:55.993Z,100187.00
2023-01-19T19:46:25.747Z,100190.40
2023-01-19T19:48:54.476Z,100191.00
2023-01-19T19:51:26.892Z,100196.20
2023-01-19T19:53:59.989Z,100199.40
2023-01-19T19:56:32.291Z,100201.80
2023-01-19T19:59:00.729Z,100204.20
2023-01-19T20:01:33.432Z,100196.80
2023-01-19T20:04:08.941Z,100207.60
2023-01-19T20:06:40.752Z,100207.60
2023-01-19T20:09:12.608Z,100208.40
2023-01-19T20:11:41.884Z,100207.80
2023-01-19T20:14:14.490Z,100211.20
2023-01-19T20:16:44.386Z,100210.20
2023-01-19T20:19:13.645Z,100217.60
2023-01-19T20:21:43.681Z,100213.40
2023-01-19T20:24:19.509Z,100219.00
2023-01-19T20:26:53.144Z,100215.60
2023-01-19T20:29:21.619Z,100227.80
2023-01-19T20:31:54.815Z,100228.40
2023-01-19T20:34:28.509Z,100234.60
2023-01-19T20:36:56.551Z,100246.80
2023-01-19T20:39:25.323Z,100247.80
2023-01-19T20:41:53.223Z,100244.20
2023-01-19T20:44:25.000Z,100244.20
2023-01-19T20:46:54.749Z,100252.20
2023-01-19T20:49:23.394Z,100244.60
2023-01-19T20:51:52.015Z,100254.80
2023-01-19T20:54:24.524Z,100255.40
2023-01-19T20:56:53.002Z,100257.40
2023-01-19T20:59:20.865Z,100264.20
2023-01-19T21:01:49.428Z,100267.00
2023-01-19T21:04:17.817Z,100273.40
2023-01-19T21:06:45.995Z,100279.40
2023-01-19T21:09:13.898Z,100287.00
2023-01-19T21:11:41.877Z,100284.00
2023-01-19T21:14:09.914Z,100289.20
2023-01-19T21:16:38.081Z,100291.60
2023-01-19T21:19:06.499Z,100292.60
2023-01-19T21:21:34.518Z,100287.60
2023-01-19T21:24:04.051Z,100284.20
2023-01-19T21:26:33.573Z,100289.40
2023-01-19T21:29:03.485Z,100286.60
2023-01-19T21:31:31.659Z,100300.20
2023-01-19T21:33:59.643Z,100298.40
2023-01-19T21:36:27.641Z,100297.60
2023-01-19T21:39:00.288Z,100307.00
2023-01-19T21:41:30.031Z,100314.60
2023-01-19T21:43:59.965Z,100318.40
2023-01-19T21:46:29.559Z,100321.40
2023-01-19T21:49:00.852Z,100323.40
2023-01-19T21:51:33.463Z,100323.20
2023-01-19T21:54:06.491Z,100328.00
2023-01-19T21:56:37.902Z,100327.20
2023-01-19T21:59:06.303Z,100331.60
2023-01-19T22:01:35.404Z,100335.60
2023-01-19T22:04:04.781Z,100339.40
2023-01-19T22:06:33.255Z,100333.60
2023-01-19T22:09:01.183Z,100337.00
2023-01-19T22:11:30.010Z,100335.80
2023-01-19T22:13:59.802Z,100340.60
2023-01-19T22:16:29.613Z,100337.20
2023-01-19T22:19:02.184Z,100345.20
2023-01-19T22:21:35.015Z,100342.00
2023-01-19T22:24:04.895Z,100348.00
2023-01-19T22:26:34.595Z,100350.00
2023-01-19T22:29:05.045Z,100352.20
2023-01-19T22:31:33.028Z,100357.40
2023-01-19T22:34:00.920Z,100352.20
2023-01-19T22:36:34.087Z,100353.60
2023-01-19T22:39:11.792Z,100354.80
2023-01-19T22:41:44.878Z,100351.40
2023-01-19T22:44:16.914Z,100350.20
2023-01-19T22:46:44.836Z,100356.40
2023-01-19T22:49:15.726Z,100350.60
2023-01-19T22:51:44.809Z,100351.20
2023-01-19T22:54:13.079Z,100357.80
2023-01-19T22:56:42.566Z,100354.40
2023-01-19T22:59:10.302Z,100356.40
2023-01-19T23:01:42.370Z,100360.40
2023-01-19T23:04:15.981Z,100360.00
2023-01-19T23:06:46.968Z,100373.00
2023-01-19T23:09:15.165Z,100365.00
2023-01-19T23:11:50.773Z,100372.60
2023-01-19T23:14:22.418Z,100380.60
2023-01-19T23:16:50.419Z,100376.60
2023-01-19T23:19:18.560Z,100378.80
2023-01-19T23:21:46.336Z,100379.40
2023-01-19T23:24:14.268Z,100374.80
2023-01-19T23:26:42.063Z,100375.80
2023-01-19T23:29:15.224Z,100375.80
2023-01-19T23:31:48.979Z,100376.60
2023-01-19T23:34:17.068Z,100375.80
2023-01-19T23:36:45.556Z,100379.20
2023-01-19T23:39:20.918Z,100390.00
2023-01-19T23:41:49.959Z,100390.00
2023-01-19T23:44:18.016Z,100383.60
2023-01-19T23:46:46.168Z,100385.40
2023-01-19T23:49:14.275Z,100383.40
2023-01-19T23:51:42.689Z,100381.20
2023-01-19T23:54:12.138Z,100382.80
2023-01-19T23:56:39.983Z,100379.00
2023-01-19T23:59:15.068Z,100381.20
